Ionia, IA (50645)

2:30 PM CDT on September 16, 2014 (GMT -0500)
Charles City Municipal | Change Station
CLOSE
Current Station
Airport
Location: Charles City,
Elevation: 1125 ft
Nearby Weather Stations

Elev 1125 ft 43.07 °N, 92.61 °W | Updated 15 minutes ago

Clear
Clear
64 °F
Feels Like 64 °F
N
0
Wind Variable Wind from North
Gusts 14 mph

Today
High -- | Low -- °F
--% Chance of Precip.
Yesterday
High -- | Low -- °F
Precip. -- in
6:50 AM 7:18 PM
Last Quarter, 43% visible
Pressure 30.15 in
Visibility 10.0 miles
Clouds Clear
Dew Point 41 °F
Humidity 42%
Rainfall 0.00 in
Snow Depth Not available.
UV 7 out of 12
Pollen 4.70 out of 12
Air Quality Not available.
Flu Activity Not available.
METAR KCCY 161915Z AUTO 00000G12KT 10SM CLR 18/05 A3015 RMK AO2

More Conditions Fewer Conditions

Pressure 30.15 in
Visibility 10.0 miles
Clouds Clear
Dew Point 41 °F
Humidity 42%
Rainfall 0.00 in
Snow Depth Not available.
UV 7 out of 12
Pollen 4.70 out of 12
Air Quality Not available.
Flu Activity Not available.
METAR KCCY 161915Z AUTO 00000G12KT 10SM CLR 18/05 A3015 RMK AO2

More Conditions Fewer Conditions

10-Day Weather Forecast

Almanac

Astronomy

Sep. 16, 2014 Rise Set
Actual Time 6:50 AM CDT 7:18 PM CDT
Civil Twilight 6:22 AM CDT 7:46 PM CDT
Nautical Twilight 5:48 AM CDT 8:20 PM CDT
Astronomical Twilight 5:13 AM CDT 8:54 PM CDT
Moon No Moon Rise 2:48 PM CDT
Length of Visible Light 13h 24m
Length of Day
12h 27m
Tomorrow will be 2m 53s shorter.
Last Quarter, 43% of the Moon is Illuminated
Today
Last Quarter
Sep 24
New
Oct 1
First Quarter
Oct 8
Full
Oct 15
Last Quarter

Today's Extremes

State Highs State Lows

Community

WunderPhotos

Upload Photos

1,753,860 photos uploaded!

WunderBlogs® & News

Nearby

Snow Depth

Station Depth Elevation
No new snow has been reported.

Earthquake Activity

City Distance Mag. Time & Date
No recent earthquake activity has been reported nearby.
Minimum magnitude displayed is 2.5.

Coastal Water Temperatures

Place Temperature
No Stations Reporting

Nearby Weather Stations